createdAt,value
2023-05-19T00:00:11.544Z,15.03
2023-05-19T00:03:15.279Z,15.16
2023-05-19T00:06:23.067Z,15.18
2023-05-19T00:09:26.854Z,15.15
2023-05-19T00:12:32.682Z,15.25
2023-05-19T00:15:37.040Z,15.40
2023-05-19T00:18:41.787Z,15.53
2023-05-19T00:21:45.096Z,15.57
2023-05-19T00:24:48.585Z,15.60
2023-05-19T00:27:52.094Z,15.61
2023-05-19T00:30:57.174Z,15.77
2023-05-19T00:34:00.922Z,15.91
2023-05-19T00:40:27.146Z,16.29
2023-05-19T00:43:31.288Z,16.43
2023-05-19T00:46:34.722Z,16.71
2023-05-19T00:49:38.703Z,16.74
2023-05-19T00:52:41.719Z,16.71
2023-05-19T00:55:45.829Z,16.67
2023-05-19T00:58:51.579Z,16.67
2023-05-19T01:01:55.585Z,16.66
2023-05-19T01:05:00.348Z,16.43
2023-05-19T01:08:04.626Z,16.45
2023-05-19T01:11:08.657Z,16.30
2023-05-19T01:14:12.072Z,16.19
2023-05-19T01:17:43.016Z,16.01
2023-05-19T01:20:59.810Z,15.85
2023-05-19T01:24:31.136Z,15.50
2023-05-19T01:28:04.066Z,15.26
2023-05-19T01:31:10.591Z,15.15
2023-05-19T01:34:17.249Z,15.15
2023-05-19T01:37:22.304Z,15.39
2023-05-19T01:40:27.333Z,15.63
2023-05-19T01:43:31.373Z,15.81
2023-05-19T01:46:36.251Z,16.05
2023-05-19T01:49:39.441Z,16.32
2023-05-19T01:52:42.497Z,16.73
2023-05-19T01:55:50.219Z,16.91
2023-05-19T01:59:32.334Z,17.38
2023-05-19T02:02:55.831Z,18.00
2023-05-19T02:06:30.622Z,18.24
2023-05-19T02:10:00.064Z,18.31
2023-05-19T02:13:07.196Z,18.52
2023-05-19T02:16:11.921Z,18.35
2023-05-19T02:19:33.047Z,18.14
2023-05-19T02:22:36.689Z,17.91
2023-05-19T02:25:40.579Z,17.63
2023-05-19T02:28:44.177Z,17.29
2023-05-19T02:31:48.240Z,17.14
2023-05-19T02:34:52.247Z,16.96
2023-05-19T02:37:56.365Z,16.57
2023-05-19T02:41:01.356Z,16.39
2023-05-19T02:44:05.969Z,16.29
2023-05-19T02:47:10.336Z,16.12
2023-05-19T02:50:14.918Z,15.91
2023-05-19T02:53:18.650Z,15.49
2023-05-19T02:56:22.776Z,15.10
2023-05-19T02:59:26.683Z,14.84
2023-05-19T03:02:30.565Z,14.58
2023-05-19T03:05:34.433Z,14.13
2023-05-19T03:08:37.701Z,13.92
2023-05-19T03:11:41.902Z,13.81
2023-05-19T03:14:45.027Z,13.99
2023-05-19T03:17:48.694Z,14.08
2023-05-19T03:20:54.483Z,14.61
2023-05-19T03:24:00.058Z,15.05
2023-05-19T03:27:07.861Z,15.29
2023-05-19T03:30:13.227Z,15.54
2023-05-19T03:33:37.017Z,15.32
2023-05-19T03:36:41.940Z,15.29
2023-05-19T03:39:50.723Z,15.37
2023-05-19T03:42:55.404Z,15.49
2023-05-19T03:45:59.356Z,15.44
2023-05-19T03:49:18.605Z,15.44
2023-05-19T03:52:47.173Z,15.77
2023-05-19T03:56:20.081Z,16.08
2023-05-19T03:59:24.332Z,16.13
2023-05-19T04:02:28.638Z,16.12
2023-05-19T04:05:32.711Z,16.23
2023-05-19T04:08:37.170Z,16.33
2023-05-19T04:11:42.018Z,16.43
2023-05-19T04:14:46.060Z,16.47
2023-05-19T04:17:50.031Z,16.59
2023-05-19T04:20:55.210Z,16.75
2023-05-19T04:24:00.792Z,16.95
2023-05-19T04:27:05.797Z,16.88
2023-05-19T04:30:10.142Z,16.88
2023-05-19T04:33:15.941Z,16.78
2023-05-19T04:36:21.999Z,16.68
2023-05-19T04:39:28.858Z,16.43
2023-05-19T04:42:33.550Z,16.26
2023-05-19T04:45:43.358Z,15.90
2023-05-19T04:48:48.271Z,15.88
2023-05-19T04:51:55.845Z,15.98
2023-05-19T04:55:04.154Z,16.04
2023-05-19T04:58:08.561Z,16.04
2023-05-19T05:01:17.075Z,15.90
2023-05-19T05:04:22.503Z,15.98
2023-05-19T05:07:26.287Z,15.95
2023-05-19T05:10:31.015Z,15.92
2023-05-19T05:13:35.624Z,15.78
2023-05-19T05:16:39.821Z,15.75
2023-05-19T05:19:46.093Z,15.67
2023-05-19T05:22:50.790Z,15.50
2023-05-19T05:25:55.328Z,15.47
2023-05-19T05:28:59.850Z,15.43
2023-05-19T05:32:03.573Z,15.36
2023-05-19T05:35:07.746Z,15.43
2023-05-19T05:38:12.144Z,15.34
2023-05-19T05:41:17.255Z,15.19
2023-05-19T05:44:22.627Z,15.06
2023-05-19T05:47:27.777Z,14.81
2023-05-19T05:50:32.168Z,14.44
2023-05-19T05:53:42.411Z,14.40
2023-05-19T05:56:46.679Z,14.24
2023-05-19T05:59:51.641Z,14.19
2023-05-19T06:02:55.476Z,14.24
2023-05-19T06:05:59.425Z,14.45
2023-05-19T06:09:03.601Z,14.41
2023-05-19T06:12:07.948Z,14.45
2023-05-19T06:15:17.796Z,14.60
2023-05-19T06:18:42.148Z,14.63
2023-05-19T06:21:46.733Z,14.68
2023-05-19T06:24:52.169Z,14.54
2023-05-19T06:27:56.413Z,14.30
2023-05-19T06:31:01.273Z,14.08
2023-05-19T06:34:26.343Z,13.68
2023-05-19T06:37:32.401Z,13.58
2023-05-19T06:40:37.686Z,13.65
2023-05-19T06:43:41.741Z,13.82
2023-05-19T06:46:52.273Z,13.89
2023-05-19T06:49:59.425Z,13.90
2023-05-19T06:53:08.396Z,13.74
2023-05-19T06:56:13.022Z,13.64
2023-05-19T06:59:16.856Z,13.59
2023-05-19T07:02:21.542Z,13.55
2023-05-19T07:05:26.341Z,13.54
2023-05-19T07:08:34.508Z,13.54
2023-05-19T07:11:39.342Z,13.55
2023-05-19T07:14:44.994Z,13.54
2023-05-19T07:17:50.007Z,13.59
2023-05-19T07:20:54.931Z,13.68
2023-05-19T07:23:59.392Z,13.78
2023-05-19T07:27:04.638Z,13.85
2023-05-19T07:30:09.101Z,13.85
2023-05-19T07:33:13.257Z,13.78
2023-05-19T07:36:17.857Z,13.59
2023-05-19T07:39:22.383Z,13.43
2023-05-19T07:42:26.394Z,13.38
2023-05-19T07:45:30.250Z,13.26
2023-05-19T07:48:33.704Z,13.07
2023-05-19T07:51:37.621Z,12.99
2023-05-19T07:54:41.267Z,12.85
2023-05-19T07:57:45.555Z,12.83
2023-05-19T08:00:49.500Z,12.63
2023-05-19T08:03:53.685Z,12.45
2023-05-19T08:07:00.904Z,12.48
2023-05-19T08:10:05.324Z,12.63
2023-05-19T08:13:09.559Z,12.73
2023-05-19T08:16:13.233Z,12.76
2023-05-19T08:19:16.846Z,12.79
2023-05-19T08:22:20.199Z,12.75
2023-05-19T08:25:23.731Z,12.71
2023-05-19T08:28:27.349Z,12.65
2023-05-19T08:31:30.783Z,12.71
2023-05-19T08:34:34.698Z,12.72
2023-05-19T08:37:40.735Z,12.68
2023-05-19T08:40:48.554Z,12.62
2023-05-19T08:43:52.052Z,12.59
2023-05-19T08:47:05.480Z,12.58
2023-05-19T08:50:13.857Z,12.59
2023-05-19T08:53:33.397Z,12.55
2023-05-19T08:56:39.736Z,12.40
2023-05-19T08:59:45.056Z,12.27
2023-05-19T09:03:00.727Z,12.27
2023-05-19T09:06:13.552Z,12.18
2023-05-19T09:09:17.900Z,12.17
2023-05-19T09:12:21.910Z,12.12
2023-05-19T09:15:28.694Z,11.91
2023-05-19T09:18:32.613Z,11.79
2023-05-19T09:21:36.968Z,11.76
2023-05-19T09:24:41.493Z,11.70
2023-05-19T09:27:46.311Z,11.73
2023-05-19T09:30:49.583Z,11.58
2023-05-19T09:33:54.635Z,11.51
2023-05-19T09:37:01.354Z,11.41
2023-05-19T09:40:06.244Z,11.35
2023-05-19T09:46:31.706Z,11.21
2023-05-19T09:49:35.393Z,11.15
2023-05-19T09:52:39.994Z,11.06
2023-05-19T09:55:43.837Z,11.10
2023-05-19T09:58:46.893Z,11.08
2023-05-19T10:01:50.746Z,11.00
2023-05-19T10:04:55.563Z,10.93
2023-05-19T10:07:59.162Z,10.70
2023-05-19T10:11:03.169Z,10.63
2023-05-19T10:14:06.878Z,10.56
2023-05-19T10:17:13.477Z,10.62
2023-05-19T10:20:18.014Z,10.52
2023-05-19T10:23:21.220Z,10.45
2023-05-19T10:26:27.137Z,10.34
2023-05-19T10:29:35.440Z,10.37
2023-05-19T10:32:41.372Z,10.31
2023-05-19T10:36:11.450Z,10.31
2023-05-19T10:39:29.815Z,10.32
2023-05-19T10:42:50.904Z,10.21
2023-05-19T10:45:58.900Z,10.17
2023-05-19T10:49:02.779Z,10.07
2023-05-19T10:52:24.116Z,9.93
2023-05-19T10:56:04.941Z,9.86
2023-05-19T10:59:08.080Z,9.84
2023-05-19T11:02:12.367Z,9.77
2023-05-19T11:05:19.357Z,9.72
2023-05-19T11:08:34.160Z,9.73
2023-05-19T11:11:48.088Z,9.64
2023-05-19T11:15:00.173Z,9.45
2023-05-19T11:18:05.664Z,9.43
2023-05-19T11:21:09.498Z,9.42
2023-05-19T11:24:40.983Z,9.45
2023-05-19T11:27:47.586Z,9.40
2023-05-19T11:30:52.766Z,9.35
2023-05-19T11:33:56.526Z,9.38
2023-05-19T11:37:00.798Z,9.46
2023-05-19T11:40:08.693Z,9.40
2023-05-19T11:43:12.854Z,9.32
2023-05-19T11:46:17.029Z,9.38
2023-05-19T11:49:21.131Z,9.32
2023-05-19T11:52:28.098Z,9.34
2023-05-19T11:55:32.048Z,9.35
2023-05-19T11:58:35.499Z,9.39
2023-05-19T12:01:39.203Z,9.36
2023-05-19T12:04:43.344Z,9.31
2023-05-19T12:07:50.608Z,9.28
2023-05-19T12:10:54.699Z,9.25
2023-05-19T12:14:02.661Z,9.22
2023-05-19T12:17:14.624Z,9.25
2023-05-19T12:20:20.556Z,9.22
2023-05-19T12:23:25.859Z,9.28
2023-05-19T12:26:29.210Z,9.25
2023-05-19T12:29:33.726Z,9.28
2023-05-19T12:32:37.762Z,9.31
2023-05-19T12:35:44.474Z,9.35
2023-05-19T12:38:48.992Z,9.42
2023-05-19T12:41:52.795Z,9.42
2023-05-19T12:44:58.378Z,9.46
2023-05-19T12:48:07.474Z,9.45
2023-05-19T12:51:11.016Z,9.50
2023-05-19T12:54:14.814Z,9.60
2023-05-19T12:57:19.182Z,9.73
2023-05-19T13:00:26.793Z,9.81
2023-05-19T13:03:32.581Z,9.86
2023-05-19T13:06:36.823Z,9.97
2023-05-19T13:09:39.866Z,10.12
2023-05-19T13:20:12.793Z,10.32
2023-05-19T13:23:17.434Z,10.28
2023-05-19T13:26:22.553Z,10.31
2023-05-19T13:29:26.560Z,10.28
2023-05-19T13:32:29.966Z,10.14
2023-05-19T13:35:42.661Z,10.02
2023-05-19T13:38:47.164Z,9.87
2023-05-19T13:41:51.364Z,9.80
2023-05-19T13:44:57.942Z,9.72
2023-05-19T13:48:01.934Z,9.73
2023-05-19T13:51:06.458Z,9.74
2023-05-19T13:54:10.726Z,9.80
2023-05-19T13:57:15.585Z,9.83
2023-05-19T14:00:20.763Z,9.89
2023-05-19T14:03:25.954Z,9.98
2023-05-19T14:06:29.818Z,10.05
2023-05-19T14:09:33.739Z,10.10
2023-05-19T14:12:55.247Z,10.14
2023-05-19T14:16:00.673Z,10.07
2023-05-19T14:19:05.511Z,10.12
2023-05-19T14:22:10.508Z,10.15
2023-05-19T14:25:14.923Z,10.17
2023-05-19T14:28:20.929Z,10.14
2023-05-19T14:31:26.789Z,10.12
2023-05-19T14:34:31.968Z,10.10
2023-05-19T14:37:35.736Z,10.08
2023-05-19T14:40:42.582Z,10.10
2023-05-19T14:43:48.842Z,10.14
2023-05-19T14:46:53.163Z,10.18
2023-05-19T14:49:57.849Z,10.27
2023-05-19T14:53:02.509Z,10.15
2023-05-19T14:56:07.350Z,10.18
2023-05-19T14:59:11.550Z,10.14
2023-05-19T15:02:15.390Z,10.19
2023-05-19T15:05:19.408Z,10.12
2023-05-19T15:08:23.256Z,10.05
2023-05-19T15:11:27.728Z,10.12
2023-05-19T15:14:32.008Z,10.22
2023-05-19T15:17:36.230Z,10.27
2023-05-19T15:20:40.581Z,10.32
2023-05-19T15:23:45.704Z,10.35
2023-05-19T15:26:50.221Z,10.34
2023-05-19T15:29:54.802Z,10.32
2023-05-19T15:32:59.174Z,10.27
2023-05-19T15:36:03.302Z,10.18
2023-05-19T15:39:07.874Z,10.19
2023-05-19T15:42:12.615Z,10.24
2023-05-19T15:45:16.454Z,10.24
2023-05-19T15:48:20.945Z,10.27
2023-05-19T15:51:27.194Z,10.27
2023-05-19T15:54:32.246Z,10.19
2023-05-19T15:57:36.691Z,10.11
2023-05-19T16:00:41.541Z,10.05
2023-05-19T16:03:47.365Z,9.98
2023-05-19T16:06:53.595Z,9.93
2023-05-19T16:09:57.215Z,9.90
2023-05-19T16:13:02.023Z,9.91
2023-05-19T16:16:06.811Z,9.97
2023-05-19T16:19:11.546Z,10.00
2023-05-19T16:22:15.318Z,10.01
2023-05-19T16:25:20.560Z,10.05
2023-05-19T16:28:25.304Z,10.11
2023-05-19T16:31:31.022Z,10.17
2023-05-19T16:34:35.401Z,10.21
2023-05-19T16:37:40.194Z,10.14
2023-05-19T16:40:45.509Z,10.18
2023-05-19T16:43:50.417Z,10.19
2023-05-19T16:46:55.203Z,10.21
2023-05-19T16:50:01.383Z,10.24
2023-05-19T16:53:06.639Z,10.31
2023-05-19T16:56:10.990Z,10.37
2023-05-19T16:59:14.617Z,10.39
2023-05-19T17:02:18.571Z,10.42
2023-05-19T17:05:24.262Z,10.38
2023-05-19T17:08:28.935Z,10.41
2023-05-19T17:11:32.910Z,10.39
2023-05-19T17:14:37.683Z,10.45
2023-05-19T17:17:41.577Z,10.46
2023-05-19T17:20:47.703Z,10.45
2023-05-19T17:23:52.227Z,10.32
2023-05-19T17:26:56.979Z,10.31
2023-05-19T17:30:01.264Z,10.18
2023-05-19T17:33:06.161Z,10.12
2023-05-19T17:36:10.434Z,10.02
2023-05-19T17:39:15.234Z,9.98
2023-05-19T17:42:20.076Z,9.91
2023-05-19T17:45:27.716Z,9.84
2023-05-19T17:48:31.868Z,9.84
2023-05-19T17:51:36.488Z,9.84
2023-05-19T17:54:40.601Z,9.84
2023-05-19T17:57:46.964Z,9.87
2023-05-19T18:00:53.772Z,9.89
2023-05-19T18:03:58.183Z,9.89
2023-05-19T18:07:03.879Z,9.87
2023-05-19T18:10:09.969Z,9.87
2023-05-19T18:13:17.389Z,9.89
2023-05-19T18:16:21.430Z,9.94
2023-05-19T18:19:25.585Z,9.94
2023-05-19T18:22:29.367Z,9.90
2023-05-19T18:25:33.625Z,9.89
2023-05-19T18:28:37.681Z,9.89
2023-05-19T18:31:43.815Z,9.89
2023-05-19T18:34:48.516Z,9.86
2023-05-19T18:37:52.511Z,9.84
2023-05-19T18:40:57.639Z,9.86
2023-05-19T18:44:01.680Z,9.86
2023-05-19T18:47:06.802Z,9.83
2023-05-19T18:50:11.519Z,9.86
2023-05-19T18:53:16.298Z,9.89
2023-05-19T18:56:27.976Z,9.94
2023-05-19T18:59:32.550Z,9.94
2023-05-19T19:02:38.438Z,10.01
2023-05-19T19:05:43.056Z,10.02
2023-05-19T19:08:48.089Z,10.02
2023-05-19T19:11:52.928Z,10.05
2023-05-19T19:14:57.546Z,10.10
2023-05-19T19:18:05.547Z,10.10
2023-05-19T19:21:12.364Z,10.12
2023-05-19T19:24:16.065Z,10.15
2023-05-19T19:27:21.556Z,10.19
2023-05-19T19:30:26.536Z,10.14
2023-05-19T19:33:30.432Z,10.11
2023-05-19T19:36:34.651Z,10.07
2023-05-19T19:39:38.750Z,10.10
2023-05-19T19:42:43.231Z,10.01
2023-05-19T19:45:47.129Z,9.83
2023-05-19T19:48:52.263Z,9.66
2023-05-19T19:51:55.480Z,9.59
2023-05-19T19:54:59.702Z,9.70
2023-05-19T19:58:03.595Z,9.72
2023-05-19T20:01:08.914Z,9.74
2023-05-19T20:04:13.117Z,9.76
2023-05-19T20:07:20.668Z,9.76
2023-05-19T20:10:24.546Z,9.79
2023-05-19T20:13:32.800Z,9.79
2023-05-19T20:16:36.931Z,9.83
2023-05-19T20:19:41.482Z,9.77
2023-05-19T20:22:47.644Z,9.81
2023-05-19T20:26:10.098Z,9.77
2023-05-19T20:29:15.181Z,9.76
2023-05-19T20:32:19.215Z,9.73
2023-05-19T20:35:23.167Z,9.73
2023-05-19T20:38:27.193Z,9.72
2023-05-19T20:41:30.709Z,9.74
2023-05-19T20:44:34.543Z,9.77
2023-05-19T20:47:38.476Z,9.77
2023-05-19T20:50:42.919Z,9.83
2023-05-19T20:53:46.468Z,9.86
2023-05-19T20:56:50.598Z,9.89
2023-05-19T20:59:54.498Z,9.90
2023-05-19T21:02:58.852Z,9.91
2023-05-19T21:06:02.697Z,9.94
2023-05-19T21:09:07.651Z,9.97
2023-05-19T21:12:11.235Z,10.04
2023-05-19T21:15:15.624Z,10.08
2023-05-19T21:18:19.413Z,10.08
2023-05-19T21:21:23.120Z,10.05
2023-05-19T21:24:27.060Z,10.12
2023-05-19T21:27:33.809Z,10.19
2023-05-19T21:30:37.681Z,10.27
2023-05-19T21:33:41.435Z,10.37
2023-05-19T21:36:44.848Z,10.45
2023-05-19T21:39:48.566Z,10.49
2023-05-19T21:42:52.283Z,10.57
2023-05-19T21:45:56.466Z,10.65
2023-05-19T21:48:59.874Z,10.77
2023-05-19T21:52:03.540Z,10.94
2023-05-19T21:55:08.082Z,11.11
2023-05-19T21:58:12.229Z,11.28
2023-05-19T22:01:15.952Z,11.51
2023-05-19T22:04:19.913Z,11.65
2023-05-19T22:07:27.440Z,11.83
2023-05-19T22:10:31.829Z,12.01
2023-05-19T22:13:37.954Z,12.08
2023-05-19T22:16:41.021Z,12.14
2023-05-19T22:19:44.805Z,12.14
2023-05-19T22:22:48.799Z,12.12
2023-05-19T22:25:52.578Z,12.07
2023-05-19T22:28:56.835Z,12.00
2023-05-19T22:32:00.323Z,11.86
2023-05-19T22:35:04.332Z,11.79
2023-05-19T22:38:12.674Z,11.78
2023-05-19T22:41:16.661Z,11.82
2023-05-19T22:44:20.238Z,11.83
2023-05-19T22:47:24.708Z,11.94
2023-05-19T22:50:28.567Z,12.03
2023-05-19T22:53:32.614Z,12.14
2023-05-19T22:56:36.423Z,12.31
2023-05-19T22:59:40.569Z,12.54
2023-05-19T23:02:43.707Z,12.76
2023-05-19T23:05:47.515Z,12.82
2023-05-19T23:09:00.151Z,12.95
2023-05-19T23:12:04.169Z,13.04
2023-05-19T23:15:10.267Z,13.09
2023-05-19T23:18:15.975Z,13.07
2023-05-19T23:21:20.040Z,13.04
2023-05-19T23:24:24.081Z,12.99
2023-05-19T23:27:27.844Z,13.16
2023-05-19T23:30:33.904Z,13.43
2023-05-19T23:33:37.717Z,13.65
2023-05-19T23:36:40.884Z,13.86
2023-05-19T23:39:44.564Z,14.20
2023-05-19T23:42:48.006Z,14.47
2023-05-19T23:45:51.698Z,14.72
2023-05-19T23:48:56.011Z,15.03
2023-05-19T23:51:59.022Z,15.18
2023-05-19T23:55:04.401Z,15.36
2023-05-19T23:58:08.128Z,15.47
